Johnstown, Ohio
Current Conditions -  °F | °C
As of 9:14 AM on Saturday 22 Nov 2014 (Local Time) from KCMH Reporting Station
Overcast Overcast  
Wind Chill: -2°   Ceiling: 3600
Heat Index:   Visibility: 10mi
Dew Point: -2°   Wind: 6mph
Humidity: 81%   Direction: 180°S
Pressure: 30.28"   Gusts: NA
Location:  40.15°N, 82.69°W
Report Text: KCMH 221414Z 18005KT 10SM FEW029 BKN036 OVC048 01/M02 A3028 RMK AO2 FZRAE14 P0001 $
Loading
Personal Weather Stations






























Interactive Weather Map New forecast layout! Learn more

10-Day Weather Forecast

Advertisements
Track Severe Weather on mobile